Cid, North Carolina
Current Conditions -  °F | °C
As of 6:55 AM on Saturday 01 Nov 2014 (Local Time) from KEXX Reporting Station
Light Rain Light Rain  
Wind Chill: 39°   Ceiling: 2800
Heat Index: 42°   Visibility: 10mi
Dew Point: 40°   Wind: 5mph
Humidity: 95%   Direction: 350°N
Pressure: 29.72"   Gusts: NA
Location:  35.7974°N, 80.2541°W
Report Text: KEXX 011055Z AUTO 35004KT 10SM -RA SCT009 SCT021 BKN028 05/05 A2972 RMK AO2 P0006 T00530046
Loading
Personal Weather Stations






























Interactive Weather Map
Tropical Storm Tracking
New forecast layout! Learn more

10-Day Weather Forecast

Advertisements
Track Severe Weather on mobile